Time;durP1;ratioP1;P1;durP2;ratioP2;P2;SDS_P1;SDS_P2;PMS_P1;PMS_P2;Temp;Humidity;BMP_temperature;BMP_pressure;BME280_temperature;BME280_humidity;BME280_pressure;Samples;Min_cycle;Max_cycle;Signal;HPM_P1;HPM_P2
2022/01/16 00:00:40;;;;;;;23.25;18.83;;;5.10;99.90;;;;;;5071139;28;20628;-52
2022/01/16 00:05:51;;;;;;;20.70;17.58;;;5.10;99.90;;;;;;5088023;28;20522;-53
2022/01/16 00:08:17;;;;;;;19.80;16.53;;;5.10;99.90;;;;;;5069820;28;20504;-49
2022/01/16 00:10:42;;;;;;;21.35;17.35;;;5.20;99.90;;;;;;5071494;28;20390;-50
2022/01/16 00:13:08;;;;;;;19.63;16.55;;;5.30;99.90;;;;;;5071795;28;20608;-51
2022/01/16 00:15:34;;;;;;;19.27;16.40;;;5.30;99.90;;;;;;5071156;28;20393;-56
2022/01/16 00:18:09;;;;;;;19.35;15.95;;;5.40;99.90;;;;;;5070084;28;20392;-54
2022/01/16 00:20:35;;;;;;;18.75;16.02;;;5.40;99.90;;;;;;5070272;28;20378;-52
2022/01/16 00:23:04;;;;;;;18.90;15.98;;;5.50;99.90;;;;;;5071060;28;20393;-54
2022/01/16 00:25:30;;;;;;;17.80;15.50;;;5.40;99.90;;;;;;5071939;28;20643;-52
2022/01/16 00:27:55;;;;;;;19.40;16.37;;;5.40;99.90;;;;;;5071223;28;20602;-53
2022/01/16 00:30:22;;;;;;;18.60;15.73;;;5.30;99.90;;;;;;5087596;28;21268;-55
2022/01/16 00:32:48;;;;;;;16.63;14.83;;;5.30;99.90;;;;;;5073191;28;20397;-52
2022/01/16 00:35:15;;;;;;;17.93;15.83;;;5.30;99.90;;;;;;5072663;28;20378;-51
2022/01/16 00:37:41;;;;;;;17.00;14.75;;;5.30;99.90;;;;;;5072987;28;20389;-53
2022/01/16 00:40:09;;;;;;;18.23;14.67;;;5.30;99.90;;;;;;5089619;28;20392;-51
2022/01/16 00:42:35;;;;;;;18.38;15.52;;;5.30;99.90;;;;;;5070582;28;20393;-51
2022/01/16 00:45:02;;;;;;;16.75;14.32;;;5.20;99.90;;;;;;5070623;28;20463;-55
2022/01/16 00:47:28;;;;;;;15.68;13.98;;;5.20;99.90;;;;;;5070881;28;20386;-54
2022/01/16 00:49:54;;;;;;;17.75;14.55;;;5.20;99.90;;;;;;5072336;28;20425;-51
2022/01/16 00:52:19;;;;;;;17.38;14.40;;;5.20;99.90;;;;;;5073195;28;20484;-55
2022/01/16 00:54:45;;;;;;;16.00;14.30;;;5.20;99.90;;;;;;5072612;28;20397;-53
2022/01/16 00:57:10;;;;;;;16.63;14.10;;;5.20;99.90;;;;;;5073159;28;20841;-54
2022/01/16 00:59:36;;;;;;;15.07;13.47;;;5.20;99.90;;;;;;5073453;28;20421;-54
2022/01/16 01:02:02;;;;;;;15.60;13.63;;;5.20;99.90;;;;;;5074237;28;20397;-56
2022/01/16 01:04:28;;;;;;;15.30;13.35;;;5.20;99.90;;;;;;5075394;28;20397;-52
2022/01/16 01:06:54;;;;;;;18.90;14.53;;;5.20;99.90;;;;;;5092530;28;20446;-53
2022/01/16 01:09:19;;;;;;;15.93;13.33;;;5.10;99.90;;;;;;5090714;28;20516;-54
2022/01/16 01:11:49;;;;;;;15.10;13.50;;;5.00;99.90;;;;;;5070773;28;20568;-56
2022/01/16 01:14:23;;;;;;;17.38;13.55;;;5.00;99.90;;;;;;5089662;28;20382;-59
2022/01/16 01:16:59;;;;;;;16.20;13.35;;;4.90;99.90;;;;;;5070984;28;20418;-52
2022/01/16 01:19:33;;;;;;;15.85;13.05;;;5.00;99.90;;;;;;5071212;28;20545;-54
2022/01/16 01:22:00;;;;;;;16.10;13.50;;;5.10;99.90;;;;;;5073583;28;20377;-53
2022/01/16 01:24:27;;;;;;;15.38;13.32;;;5.10;99.90;;;;;;5076103;28;20392;-51
2022/01/16 01:27:09;;;;;;;15.77;13.40;;;5.00;99.90;;;;;;5075566;28;20497;-51
2022/01/16 01:29:36;;;;;;;16.65;13.68;;;4.90;99.90;;;;;;5093980;28;20421;-50
2022/01/16 01:32:02;;;;;;;18.00;13.75;;;4.80;99.90;;;;;;5076868;28;20393;-54
2022/01/16 01:34:28;;;;;;;15.38;13.48;;;4.80;99.90;;;;;;5077850;28;20382;-55
2022/01/16 01:36:54;;;;;;;17.00;13.57;;;4.80;99.90;;;;;;5076476;28;20673;-54
2022/01/16 01:39:21;;;;;;;13.63;12.18;;;4.90;99.90;;;;;;5093721;28;20386;-52
2022/01/16 01:41:50;;;;;;;15.60;13.75;;;4.90;99.90;;;;;;5077482;28;20466;-55
2022/01/16 01:52:28;;;;;;;14.77;12.88;;;4.60;99.90;;;;;;5093552;28;20431;-53
2022/01/16 01:54:54;;;;;;;16.63;14.43;;;4.60;99.90;;;;;;5076501;28;20386;-49
2022/01/16 01:57:20;;;;;;;19.47;15.37;;;4.50;99.90;;;;;;5075106;28;20446;-53
2022/01/16 01:59:45;;;;;;;16.57;14.07;;;4.30;99.90;;;;;;5074855;28;20421;-54
2022/01/16 02:02:11;;;;;;;18.42;16.42;;;4.30;99.90;;;;;;5073114;28;20398;-51
2022/01/16 02:04:37;;;;;;;23.15;18.20;;;4.30;99.90;;;;;;5072010;28;20827;-52
2022/01/16 02:07:03;;;;;;;21.30;18.40;;;4.10;99.90;;;;;;5090881;28;20701;-52
2022/01/16 02:09:29;;;;;;;23.58;20.00;;;4.10;99.90;;;;;;5074152;28;20398;-53
2022/01/16 02:11:54;;;;;;;23.80;20.08;;;4.00;99.90;;;;;;5092198;28;20374;-54
2022/01/16 02:14:48;;;;;;;22.73;20.23;;;3.90;99.90;;;;;;5074908;28;20402;-52
2022/01/16 02:28:43;;;;;;;25.88;21.48;;;3.80;99.90;;;;;;5094263;28;20665;-53
2022/01/16 02:31:21;;;;;;;24.75;21.17;;;3.80;99.90;;;;;;5077617;28;20386;-52
2022/01/16 02:36:31;;;;;;;29.65;22.98;;;3.70;99.90;;;;;;5095930;28;20381;-55
2022/01/16 02:38:59;;;;;;;27.30;22.67;;;3.60;99.90;;;;;;5076102;28;20840;-54
2022/01/16 02:41:25;;;;;;;26.27;22.38;;;3.50;99.90;;;;;;5076150;28;20874;-55
2022/01/16 02:43:52;;;;;;;28.03;23.10;;;3.60;99.90;;;;;;5093734;28;20401;-52
2022/01/16 02:48:46;;;;;;;27.90;22.77;;;3.60;99.90;;;;;;5090241;28;20406;-54
2022/01/16 02:51:17;;;;;;;26.98;23.33;;;3.70;99.90;;;;;;5073013;28;20469;-53
2022/01/16 02:53:43;;;;;;;29.00;22.75;;;3.70;99.90;;;;;;5109283;28;20389;-55
2022/01/16 02:56:09;;;;;;;29.83;24.00;;;3.60;99.90;;;;;;5077633;28;20470;-52
2022/01/16 02:58:34;;;;;;;29.43;23.93;;;3.60;99.90;;;;;;5095592;28;20530;-53
2022/01/16 03:01:00;;;;;;;31.73;25.33;;;3.50;99.90;;;;;;5077466;28;20405;-53
2022/01/16 03:03:26;;;;;;;30.40;25.38;;;3.50;99.90;;;;;;5077802;28;20389;-52
2022/01/16 03:05:51;;;;;;;32.33;25.65;;;3.50;99.90;;;;;;5095567;28;20397;-54
2022/01/16 03:08:17;;;;;;;30.35;25.13;;;3.70;99.90;;;;;;5077714;28;20410;-56
2022/01/16 03:11:05;;;;;;;29.98;25.45;;;3.80;99.90;;;;;;5076747;28;20790;-54
2022/01/16 03:13:32;;;;;;;32.33;26.17;;;3.80;99.90;;;;;;5075821;28;20432;-51
2022/01/16 03:16:00;;;;;;;31.23;26.35;;;3.70;99.90;;;;;;5075306;28;20397;-53
2022/01/16 03:23:35;;;;;;;32.80;26.27;;;3.80;99.90;;;;;;5094038;28;20516;-50
2022/01/16 03:26:02;;;;;;;33.43;26.87;;;3.80;99.90;;;;;;5095235;28;20867;-50
2022/01/16 03:28:27;;;;;;;32.47;26.33;;;3.80;99.90;;;;;;5075168;28;20413;-55
2022/01/16 03:30:54;;;;;;;32.97;27.23;;;3.70;99.90;;;;;;5093104;28;20382;-54
2022/01/16 03:33:20;;;;;;;32.20;26.95;;;3.70;99.90;;;;;;5075813;28;20431;-55
2022/01/16 03:35:47;;;;;;;34.20;27.52;;;3.80;99.90;;;;;;5076198;28;20390;-53
2022/01/16 03:38:13;;;;;;;32.90;26.02;;;3.70;99.90;;;;;;5074383;28;20386;-56
2022/01/16 03:40:38;;;;;;;32.70;26.40;;;3.80;99.90;;;;;;5076416;28;20389;-51
2022/01/16 03:43:14;;;;;;;32.38;25.27;;;3.80;99.90;;;;;;5093313;28;20473;-56
2022/01/16 03:45:41;;;;;;;28.77;23.97;;;3.90;99.90;;;;;;5074551;28;20481;-55
2022/01/16 03:48:07;;;;;;;34.13;26.15;;;4.00;99.90;;;;;;5076183;28;20406;-54
2022/01/16 03:50:33;;;;;;;32.10;25.47;;;3.90;99.90;;;;;;5076853;28;20543;-53
2022/01/16 03:52:58;;;;;;;31.80;26.40;;;3.90;99.90;;;;;;5077872;28;20382;-53
2022/01/16 03:55:24;;;;;;;34.33;26.08;;;3.90;99.90;;;;;;5077375;28;20382;-54
2022/01/16 03:57:49;;;;;;;35.87;26.73;;;3.80;99.90;;;;;;5075399;28;20451;-51
2022/01/16 04:00:15;;;;;;;35.97;26.63;;;3.80;99.90;;;;;;5075563;28;20438;-50
2022/01/16 04:02:40;;;;;;;39.45;28.23;;;3.80;99.90;;;;;;5075304;28;20727;-52
2022/01/16 04:05:06;;;;;;;39.20;28.85;;;3.90;99.90;;;;;;5075116;28;20731;-54
2022/01/16 04:07:35;;;;;;;39.10;28.52;;;3.90;99.90;;;;;;5090375;28;20469;-52
2022/01/16 04:10:05;;;;;;;38.25;28.33;;;3.90;99.90;;;;;;5092806;28;20428;-55
2022/01/16 04:12:33;;;;;;;39.00;27.42;;;3.90;99.90;;;;;;5091455;28;20381;-55
2022/01/16 04:17:24;;;;;;;36.47;27.87;;;3.90;99.90;;;;;;5092889;28;20681;-54
2022/01/16 04:19:50;;;;;;;36.17;27.00;;;3.80;99.90;;;;;;5073475;28;20392;-54
2022/01/16 04:22:16;;;;;;;36.58;27.17;;;3.90;99.90;;;;;;5075267;28;20416;-55
2022/01/16 04:24:42;;;;;;;32.08;25.33;;;4.00;99.90;;;;;;5075548;28;20394;-53
2022/01/16 04:27:10;;;;;;;31.43;24.83;;;4.00;99.90;;;;;;5093225;28;20417;-50
2022/01/16 04:29:36;;;;;;;30.08;24.08;;;4.00;99.90;;;;;;5075840;28;20897;-54
2022/01/16 04:32:03;;;;;;;33.78;25.60;;;4.00;99.90;;;;;;5076113;28;20474;-51
2022/01/16 04:34:29;;;;;;;34.78;25.98;;;4.00;99.90;;;;;;5073337;28;20484;-54
2022/01/16 04:36:54;;;;;;;31.23;25.20;;;4.00;99.90;;;;;;5075193;28;20465;-52
2022/01/16 04:39:21;;;;;;;32.97;25.23;;;4.00;99.90;;;;;;5076073;28;20736;-52
2022/01/16 04:44:31;;;;;;;29.80;24.20;;;4.10;99.90;;;;;;5094322;28;20860;-51
2022/01/16 04:46:58;;;;;;;33.08;24.42;;;4.10;99.90;;;;;;5092693;28;20393;-54
2022/01/16 04:49:24;;;;;;;31.25;24.17;;;4.10;99.90;;;;;;5092374;28;20574;-54
2022/01/16 04:51:49;;;;;;;33.08;25.63;;;4.10;99.90;;;;;;5074439;28;20404;-51
2022/01/16 04:54:15;;;;;;;33.10;25.92;;;4.00;99.90;;;;;;5074832;28;20826;-54
2022/01/16 04:56:41;;;;;;;32.13;25.50;;;4.10;99.90;;;;;;5077034;28;20382;-51
2022/01/16 04:59:06;;;;;;;32.40;25.77;;;4.00;99.90;;;;;;5079296;28;20413;-51
2022/01/16 05:01:33;;;;;;;33.93;26.37;;;4.10;99.90;;;;;;5095655;28;20476;-54
2022/01/16 05:03:58;;;;;;;33.85;26.42;;;4.10;99.90;;;;;;5078120;28;20418;-54
2022/01/16 05:06:24;;;;;;;34.38;26.05;;;4.10;99.90;;;;;;5078329;28;20456;-55
2022/01/16 05:08:50;;;;;;;34.13;26.10;;;4.10;99.90;;;;;;5097951;28;20398;-55
2022/01/16 05:11:21;;;;;;;31.55;25.45;;;4.20;99.90;;;;;;5079218;28;20797;-52
2022/01/16 05:19:09;;;;;;;31.00;25.23;;;4.00;99.90;;;;;;5079605;28;20393;-53
2022/01/16 05:21:36;;;;;;;31.27;25.33;;;4.00;99.90;;;;;;5078901;28;20827;-55
2022/01/16 05:24:07;;;;;;;31.63;25.80;;;4.00;99.90;;;;;;5078598;28;20392;-53
2022/01/16 05:26:34;;;;;;;32.72;24.88;;;4.10;99.90;;;;;;5078285;28;20816;-57
2022/01/16 05:29:00;;;;;;;31.15;24.58;;;4.10;99.90;;;;;;5079050;28;20805;-52
2022/01/16 05:31:25;;;;;;;31.63;24.27;;;4.00;99.90;;;;;;5096818;28;20382;-56
2022/01/16 05:33:52;;;;;;;30.98;24.20;;;4.00;99.90;;;;;;5095183;28;20397;-55
2022/01/16 05:36:22;;;;;;;31.48;24.83;;;3.90;99.90;;;;;;5076916;28;20703;-52
2022/01/16 05:38:48;;;;;;;30.73;24.52;;;3.90;99.90;;;;;;5078761;28;20794;-52
2022/01/16 05:41:14;;;;;;;32.63;24.35;;;3.80;99.90;;;;;;5078175;28;20378;-53
2022/01/16 05:43:40;;;;;;;32.72;24.85;;;3.80;99.90;;;;;;5078064;28;20446;-57
2022/01/16 05:46:05;;;;;;;36.73;26.83;;;3.90;99.90;;;;;;5095985;28;20393;-52
2022/01/16 05:48:31;;;;;;;37.90;26.57;;;3.80;99.90;;;;;;5075207;28;20402;-52
2022/01/16 05:50:57;;;;;;;32.50;25.27;;;3.90;99.90;;;;;;5075100;28;20480;-53
2022/01/16 05:53:22;;;;;;;34.60;25.23;;;3.90;99.90;;;;;;5075006;28;20390;-54
2022/01/16 05:55:48;;;;;;;33.80;25.33;;;4.00;99.90;;;;;;5075269;28;20390;-55
2022/01/16 05:58:14;;;;;;;34.47;24.83;;;3.90;99.90;;;;;;5075187;28;20412;-55
2022/01/16 06:00:40;;;;;;;35.70;25.65;;;3.90;99.90;;;;;;5075907;28;20394;-52
2022/01/16 06:03:08;;;;;;;34.83;24.80;;;3.90;99.90;;;;;;5074044;28;20423;-54
2022/01/16 06:05:34;;;;;;;36.40;25.83;;;3.90;99.90;;;;;;5090793;28;20488;-50
2022/01/16 06:08:06;;;;;;;35.70;24.87;;;3.90;99.90;;;;;;5072802;28;20394;-52
2022/01/16 06:10:32;;;;;;;38.33;25.95;;;3.90;99.90;;;;;;5073588;28;20418;-52
2022/01/16 06:12:57;;;;;;;38.90;27.50;;;4.00;99.90;;;;;;5073477;28;20489;-54
2022/01/16 06:15:23;;;;;;;41.22;28.55;;;3.90;99.90;;;;;;5073859;28;20786;-53
2022/01/16 06:17:49;;;;;;;44.22;30.67;;;3.80;99.90;;;;;;5073907;28;20480;-55
2022/01/16 06:20:15;;;;;;;45.85;31.45;;;3.90;99.90;;;;;;5073502;28;20484;-51
2022/01/16 06:22:42;;;;;;;47.38;31.35;;;3.80;99.90;;;;;;5073264;28;20382;-56
2022/01/16 06:25:08;;;;;;;51.28;32.72;;;3.80;99.90;;;;;;5074526;28;20378;-51
2022/01/16 06:27:34;;;;;;;49.45;32.40;;;3.80;99.90;;;;;;5093299;28;20413;-53
2022/01/16 06:29:59;;;;;;;49.70;31.80;;;3.80;99.90;;;;;;5074015;28;20436;-51
2022/01/16 06:32:24;;;;;;;49.50;32.20;;;3.90;99.90;;;;;;5091588;28;20837;-53
2022/01/16 06:34:50;;;;;;;47.90;32.53;;;3.90;99.90;;;;;;5075345;28;20382;-49
2022/01/16 06:37:15;;;;;;;47.23;31.77;;;3.90;99.90;;;;;;5075450;28;20393;-54
2022/01/16 06:39:50;;;;;;;47.78;31.98;;;4.00;99.90;;;;;;5076981;28;20425;-54
2022/01/16 06:42:16;;;;;;;47.05;32.92;;;4.00;99.90;;;;;;5076411;28;20404;-51
2022/01/16 06:44:42;;;;;;;48.60;33.75;;;4.00;99.90;;;;;;5095045;28;20402;-51
2022/01/16 06:47:08;;;;;;;49.33;33.30;;;4.00;99.90;;;;;;5077737;28;20409;-51
2022/01/16 06:49:34;;;;;;;46.25;32.17;;;4.00;99.90;;;;;;5076428;28;20410;-52
2022/01/16 06:51:59;;;;;;;47.80;32.22;;;4.00;99.90;;;;;;5073759;28;20461;-55
2022/01/16 06:54:25;;;;;;;44.25;29.48;;;4.00;99.90;;;;;;5074249;28;20811;-50
2022/01/16 06:56:50;;;;;;;44.03;30.30;;;3.80;99.90;;;;;;5094625;28;20404;-51
2022/01/16 06:59:16;;;;;;;44.50;30.23;;;3.80;99.90;;;;;;5076334;28;20425;-52
2022/01/16 07:01:41;;;;;;;42.22;29.42;;;3.80;99.90;;;;;;5075928;28;20436;-50
2022/01/16 07:04:07;;;;;;;42.05;28.73;;;3.70;99.90;;;;;;5075631;28;20812;-52
2022/01/16 07:06:32;;;;;;;41.40;29.73;;;3.80;99.90;;;;;;5074084;28;20393;-50
2022/01/16 07:08:58;;;;;;;42.27;28.23;;;3.70;99.90;;;;;;5076157;28;20406;-53
2022/01/16 07:11:23;;;;;;;39.05;26.33;;;3.80;99.90;;;;;;5095658;28;20393;-55
2022/01/16 07:13:49;;;;;;;36.80;25.42;;;3.80;99.90;;;;;;5077748;28;20390;-56
2022/01/16 07:16:15;;;;;;;36.67;26.00;;;3.90;99.90;;;;;;5078833;28;20397;-54
2022/01/16 07:18:42;;;;;;;38.97;26.02;;;3.90;99.90;;;;;;5078688;28;20382;-55
2022/01/16 07:21:13;;;;;;;40.90;27.55;;;3.90;99.90;;;;;;5075724;28;20758;-53
2022/01/16 07:23:41;;;;;;;40.25;27.17;;;3.90;99.90;;;;;;5074518;28;20378;-54
2022/01/16 07:26:06;;;;;;;40.78;27.25;;;3.90;99.90;;;;;;5074431;28;20420;-51
2022/01/16 07:28:32;;;;;;;45.05;29.13;;;3.90;99.90;;;;;;5073843;28;20927;-52
2022/01/16 07:30:57;;;;;;;43.78;29.30;;;3.90;99.90;;;;;;5071888;28;20405;-55
2022/01/16 07:33:23;;;;;;;47.20;30.83;;;3.90;99.90;;;;;;5071434;28;20378;-52
2022/01/16 07:35:48;;;;;;;50.37;30.93;;;3.80;99.90;;;;;;5072304;28;20497;-53
2022/01/16 07:38:15;;;;;;;45.53;29.33;;;3.70;99.90;;;;;;5073734;28;20385;-56
2022/01/16 07:40:42;;;;;;;48.17;31.27;;;3.70;99.90;;;;;;5077401;28;20393;-53
2022/01/16 07:43:07;;;;;;;49.15;31.10;;;3.60;99.90;;;;;;5076260;28;20409;-55
2022/01/16 07:45:33;;;;;;;47.87;30.53;;;3.70;99.90;;;;;;5091679;28;20382;-56
2022/01/16 07:47:59;;;;;;;50.20;31.33;;;3.70;99.90;;;;;;5073470;28;20465;-54
2022/01/16 07:50:25;;;;;;;48.77;29.67;;;3.70;99.90;;;;;;5075605;28;20466;-53
2022/01/16 07:52:51;;;;;;;47.03;29.13;;;3.80;99.90;;;;;;5077669;28;20390;-54
2022/01/16 07:55:20;;;;;;;48.90;29.88;;;3.80;99.90;;;;;;5077723;28;20397;-54
2022/01/16 07:57:46;;;;;;;50.00;30.93;;;3.70;99.90;;;;;;5076980;28;20485;-53
2022/01/16 08:00:13;;;;;;;49.77;31.97;;;3.70;99.90;;;;;;5077584;28;20726;-50
2022/01/16 08:02:39;;;;;;;51.25;32.60;;;3.80;99.90;;;;;;5076387;28;20493;-52
2022/01/16 08:05:07;;;;;;;56.20;34.65;;;3.70;99.90;;;;;;5094413;28;20472;-53
2022/01/16 08:07:33;;;;;;;56.00;33.35;;;3.70;99.90;;;;;;5076121;28;20397;-50
2022/01/16 08:10:00;;;;;;;57.77;35.90;;;3.60;99.90;;;;;;5076358;28;20394;-50
2022/01/16 08:12:25;;;;;;;57.25;36.28;;;3.70;99.90;;;;;;5092291;28;20436;-55
2022/01/16 08:14:52;;;;;;;62.53;38.93;;;3.80;99.90;;;;;;5075732;28;20506;-50
2022/01/16 08:17:19;;;;;;;62.58;38.25;;;3.70;99.90;;;;;;5075097;28;20386;-51
2022/01/16 08:19:45;;;;;;;66.03;38.90;;;3.60;99.90;;;;;;5076419;28;20396;-50
2022/01/16 08:22:11;;;;;;;64.33;37.30;;;3.70;99.90;;;;;;5093843;28;20394;-52
2022/01/16 08:24:37;;;;;;;65.32;39.30;;;3.70;99.90;;;;;;5076657;28;20704;-52
2022/01/16 08:27:04;;;;;;;67.28;39.08;;;3.70;99.90;;;;;;5075810;28;20792;-53
2022/01/16 08:29:31;;;;;;;63.55;39.45;;;3.70;99.90;;;;;;5093600;28;20475;-54
2022/01/16 08:31:58;;;;;;;70.93;40.22;;;3.70;99.90;;;;;;5075231;28;20492;-52
2022/01/16 08:34:24;;;;;;;66.93;39.08;;;3.70;99.90;;;;;;5092816;28;20646;-55
2022/01/16 08:37:03;;;;;;;72.38;39.15;;;3.60;99.90;;;;;;5076106;28;20471;-53
2022/01/16 08:39:30;;;;;;;71.35;40.53;;;3.60;99.90;;;;;;5075713;28;20408;-55
2022/01/16 08:41:56;;;;;;;71.40;39.50;;;3.60;99.90;;;;;;5075845;28;20468;-54
2022/01/16 08:44:23;;;;;;;65.77;38.57;;;3.60;99.90;;;;;;5076573;28;20925;-53
2022/01/16 08:46:48;;;;;;;69.05;39.45;;;3.60;99.90;;;;;;5048728;28;20394;-52
2022/01/16 08:49:15;;;;;;;73.30;40.47;;;3.60;99.90;;;;;;5075925;28;20498;-54
2022/01/16 08:51:41;;;;;;;74.18;40.20;;;3.60;99.90;;;;;;5075378;28;20532;-54
2022/01/16 08:54:06;;;;;;;71.32;40.28;;;3.60;99.90;;;;;;5093652;28;20489;-56
2022/01/16 08:56:33;;;;;;;73.85;42.00;;;3.50;99.90;;;;;;5093964;28;20382;-55
2022/01/16 08:59:00;;;;;;;71.55;40.70;;;3.50;99.90;;;;;;5092709;28;20501;-52
2022/01/16 09:01:27;;;;;;;68.50;39.50;;;3.50;99.90;;;;;;5089784;28;20434;-53
2022/01/16 09:03:54;;;;;;;73.68;40.15;;;3.60;99.90;;;;;;5092639;28;20385;-51
2022/01/16 09:06:21;;;;;;;68.72;39.70;;;3.50;99.90;;;;;;5074533;28;20389;-54
2022/01/16 09:08:47;;;;;;;75.03;40.38;;;3.60;99.90;;;;;;5075385;28;20417;-54
2022/01/16 09:11:13;;;;;;;71.10;39.43;;;3.50;99.90;;;;;;5074571;28;20397;-52
2022/01/16 09:13:41;;;;;;;69.25;39.67;;;3.60;99.90;;;;;;5073933;28;20390;-52
2022/01/16 09:16:08;;;;;;;74.30;41.70;;;3.60;99.90;;;;;;5090183;28;20401;-55
2022/01/16 09:18:34;;;;;;;78.40;40.88;;;3.50;99.90;;;;;;5073194;28;20518;-52
2022/01/16 09:21:01;;;;;;;75.80;41.38;;;3.50;99.90;;;;;;5073568;28;20441;-52
2022/01/16 09:23:29;;;;;;;77.80;42.15;;;3.50;99.90;;;;;;5072399;28;20413;-50
2022/01/16 09:25:55;;;;;;;74.70;40.90;;;3.50;99.90;;;;;;5073142;28;20813;-53
2022/01/16 09:28:22;;;;;;;70.77;39.90;;;3.50;99.90;;;;;;5071530;28;20564;-51
2022/01/16 09:30:49;;;;;;;82.40;42.78;;;3.60;99.90;;;;;;5087451;28;20398;-51
2022/01/16 09:33:15;;;;;;;79.32;40.85;;;3.50;99.90;;;;;;5072148;28;20420;-57
2022/01/16 09:35:42;;;;;;;75.47;40.33;;;3.60;99.90;;;;;;5071918;28;20443;-53
2022/01/16 09:38:08;;;;;;;72.97;39.53;;;3.60;99.90;;;;;;5091379;28;20809;-54
2022/01/16 09:40:34;;;;;;;78.43;41.70;;;3.60;99.90;;;;;;5073236;28;20419;-52
2022/01/16 09:43:03;;;;;;;78.40;41.10;;;3.50;99.90;;;;;;5059205;28;21047;-55
2022/01/16 09:45:29;;;;;;;74.47;41.20;;;3.60;99.90;;;;;;5076320;28;20397;-52
2022/01/16 09:47:55;;;;;;;76.60;41.42;;;3.60;99.90;;;;;;5076768;28;20386;-51
2022/01/16 09:50:24;;;;;;;79.15;40.88;;;3.60;99.90;;;;;;5091136;28;20544;-52
2022/01/16 09:52:49;;;;;;;77.95;40.80;;;3.70;99.90;;;;;;5073601;28;20413;-52
2022/01/16 09:55:16;;;;;;;73.97;40.60;;;3.70;99.90;;;;;;5089924;28;20478;-55
2022/01/16 09:57:42;;;;;;;79.68;42.15;;;3.70;99.90;;;;;;5073376;28;20451;-56
2022/01/16 10:00:12;;;;;;;80.57;42.17;;;3.70;99.90;;;;;;5073144;28;20441;-54
2022/01/16 10:02:37;;;;;;;78.85;41.53;;;3.60;99.90;;;;;;5089428;28;20935;-54
2022/01/16 10:05:37;;;;;;;77.85;41.85;;;3.60;99.90;;;;;;5089506;28;20382;-53
2022/01/16 10:08:13;;;;;;;76.20;41.63;;;3.60;99.90;;;;;;5071131;28;20644;-54
2022/01/16 10:10:42;;;;;;;73.85;40.10;;;3.70;99.90;;;;;;5069905;28;20374;-54
2022/01/16 10:13:41;;;;;;;84.68;42.72;;;3.60;99.90;;;;;;5070926;28;20377;-54
2022/01/16 10:16:07;;;;;;;78.25;41.45;;;3.60;99.90;;;;;;5088965;28;20647;-55
2022/01/16 10:18:33;;;;;;;80.77;41.20;;;3.70;99.90;;;;;;5069089;28;20452;-51
2022/01/16 10:20:59;;;;;;;77.07;41.92;;;3.70;99.90;;;;;;5088071;28;20405;-52
2022/01/16 10:23:25;;;;;;;81.93;42.85;;;3.70;99.90;;;;;;5068149;28;20686;-50
2022/01/16 10:25:51;;;;;;;80.13;40.80;;;3.70;99.90;;;;;;5068329;28;20370;-56
2022/01/16 10:28:25;;;;;;;75.47;41.83;;;3.70;99.90;;;;;;5086985;28;20401;-52
2022/01/16 10:30:54;;;;;;;77.15;40.28;;;3.70;99.90;;;;;;5093328;28;20402;-52
2022/01/16 10:33:23;;;;;;;79.07;41.03;;;3.70;99.90;;;;;;5074703;28;20370;-55
2022/01/16 10:35:51;;;;;;;80.53;42.00;;;3.70;99.90;;;;;;5089072;28;20422;-56
2022/01/16 10:38:22;;;;;;;78.72;40.72;;;3.70;99.90;;;;;;5072742;28;20389;-50
2022/01/16 10:40:50;;;;;;;75.00;40.45;;;3.70;99.90;;;;;;5073781;28;20382;-53
2022/01/16 10:43:18;;;;;;;77.03;39.50;;;3.80;99.90;;;;;;5072038;28;20393;-50
2022/01/16 10:45:44;;;;;;;74.18;38.85;;;3.80;99.90;;;;;;5072191;28;20425;-52
2022/01/16 10:48:13;;;;;;;73.53;40.35;;;3.80;99.90;;;;;;5074367;28;20413;-54
2022/01/16 10:50:45;;;;;;;76.20;40.13;;;3.80;99.90;;;;;;5094058;28;20392;-53
2022/01/16 10:53:22;;;;;;;70.43;39.17;;;3.90;99.90;;;;;;5092370;28;20405;-52
2022/01/16 10:55:55;;;;;;;71.35;38.38;;;3.90;99.90;;;;;;5093644;28;20378;-50
2022/01/16 10:58:29;;;;;;;70.90;38.85;;;3.90;99.90;;;;;;5076772;28;20413;-53
2022/01/16 11:01:03;;;;;;;71.30;39.08;;;3.90;99.90;;;;;;5076627;28;20484;-54
2022/01/16 11:03:39;;;;;;;67.65;37.50;;;4.00;99.90;;;;;;5093206;28;20381;-51
2022/01/16 11:06:05;;;;;;;69.50;36.83;;;4.00;99.90;;;;;;5093526;28;20374;-54
2022/01/16 11:08:31;;;;;;;66.23;35.50;;;4.00;99.90;;;;;;5074446;28;20780;-54
2022/01/16 11:10:59;;;;;;;61.50;35.63;;;4.00;99.90;;;;;;5092013;28;20790;-54
2022/01/16 11:13:29;;;;;;;67.05;36.40;;;4.10;99.90;;;;;;5074400;28;20378;-52
2022/01/16 11:15:58;;;;;;;61.78;35.70;;;4.10;99.90;;;;;;5073904;28;20528;-54
2022/01/16 11:18:25;;;;;;;61.72;33.92;;;4.00;99.90;;;;;;5074316;28;20442;-53
2022/01/16 11:20:56;;;;;;;65.38;35.70;;;4.00;99.90;;;;;;5074827;28;20655;-56
2022/01/16 11:26:04;;;;;;;59.55;32.85;;;4.20;99.90;;;;;;5092925;28;20410;-51
2022/01/16 11:28:30;;;;;;;58.92;31.90;;;4.30;99.90;;;;;;5072166;28;20505;-52
2022/01/16 11:30:58;;;;;;;52.53;30.98;;;4.20;99.90;;;;;;5090598;28;20394;-55
2022/01/16 11:33:26;;;;;;;56.50;31.85;;;4.20;99.90;;;;;;5087186;28;20381;-55
2022/01/16 11:36:06;;;;;;;56.65;30.10;;;4.10;99.90;;;;;;5069374;28;20801;-51
2022/01/16 11:38:40;;;;;;;53.60;31.55;;;4.10;99.90;;;;;;5071081;28;20397;-53
2022/01/16 11:41:52;;;;;;;53.97;30.57;;;4.10;99.90;;;;;;5071037;28;20427;-55
2022/01/16 11:44:29;;;;;;;55.22;31.02;;;4.10;99.90;;;;;;5042198;28;20413;-53
2022/01/16 11:46:57;;;;;;;54.70;30.40;;;4.10;99.90;;;;;;5071098;28;20400;-55
2022/01/16 11:49:43;;;;;;;51.40;29.63;;;4.10;99.90;;;;;;5087594;28;20583;-55
2022/01/16 11:52:15;;;;;;;53.65;30.25;;;4.10;99.90;;;;;;5088633;28;20402;-52
2022/01/16 11:54:43;;;;;;;52.70;29.60;;;4.00;99.90;;;;;;5070972;28;20951;-51
2022/01/16 11:57:18;;;;;;;54.00;30.13;;;4.10;99.90;;;;;;5072833;28;20399;-53
2022/01/16 11:59:46;;;;;;;54.92;30.67;;;4.20;99.90;;;;;;5087944;28;20480;-53
2022/01/16 12:02:12;;;;;;;53.53;30.33;;;4.20;99.90;;;;;;5087954;28;20488;-53
2022/01/16 12:04:43;;;;;;;49.43;28.27;;;4.20;99.90;;;;;;5088190;28;20457;-53
2022/01/16 12:07:19;;;;;;;55.67;31.05;;;4.20;99.90;;;;;;5086600;28;20399;-51
2022/01/16 12:12:14;;;;;;;53.53;30.20;;;4.20;99.90;;;;;;5072916;28;20387;-54
2022/01/16 12:14:59;;;;;;;49.75;29.38;;;4.20;99.90;;;;;;5071605;28;20399;-53
2022/01/16 12:17:31;;;;;;;51.90;29.53;;;4.30;99.90;;;;;;5087901;28;20379;-52
2022/01/16 12:20:13;;;;;;;51.15;31.15;;;4.30;99.90;;;;;;5087223;28;20384;-52
2022/01/16 12:23:04;;;;;;;51.67;30.45;;;4.30;99.90;;;;;;5086031;28;20656;-49
2022/01/16 12:25:40;;;;;;;56.95;32.38;;;4.30;99.90;;;;;;5075473;28;20392;-51
2022/01/16 12:28:09;;;;;;;58.65;32.35;;;4.30;99.90;;;;;;5073671;28;20417;-55
2022/01/16 12:30:52;;;;;;;51.78;31.48;;;4.30;99.90;;;;;;5073444;28;20487;-52
2022/01/16 12:33:29;;;;;;;57.53;31.60;;;4.40;99.90;;;;;;5090397;28;20745;-54
2022/01/16 12:35:58;;;;;;;54.90;31.48;;;4.40;99.90;;;;;;5057599;28;20400;-53
2022/01/16 12:38:32;;;;;;;60.63;34.47;;;4.40;99.90;;;;;;5052732;28;20402;-55
2022/01/16 12:41:16;;;;;;;59.15;33.28;;;4.40;99.90;;;;;;5087125;28;20383;-52
2022/01/16 12:44:04;;;;;;;61.40;33.28;;;4.40;99.90;;;;;;5085858;28;20392;-54
2022/01/16 12:46:39;;;;;;;63.92;34.25;;;4.50;99.90;;;;;;5083057;28;20617;-54
2022/01/16 12:49:29;;;;;;;57.25;33.28;;;4.50;99.90;;;;;;5079187;28;20597;-51
2022/01/16 12:51:57;;;;;;;55.35;31.85;;;4.50;99.90;;;;;;5080749;28;20383;-55
2022/01/16 12:54:28;;;;;;;59.40;34.30;;;4.60;99.90;;;;;;5064587;28;20379;-52
2022/01/16 12:56:57;;;;;;;58.03;34.00;;;4.60;99.90;;;;;;5046165;28;20547;-50
2022/01/16 12:59:25;;;;;;;56.95;32.38;;;4.60;99.90;;;;;;5080760;28;20920;-56
2022/01/16 13:01:54;;;;;;;58.83;32.72;;;4.60;99.90;;;;;;5046808;28;20441;-54
2022/01/16 13:04:21;;;;;;;61.63;34.90;;;4.60;99.90;;;;;;5066064;28;20379;-55
2022/01/16 13:06:46;;;;;;;62.53;33.30;;;4.60;99.90;;;;;;5081360;28;20399;-52
2022/01/16 13:09:12;;;;;;;60.33;34.33;;;4.70;99.90;;;;;;5080370;28;20412;-52
2022/01/16 13:11:41;;;;;;;63.55;35.95;;;4.70;99.90;;;;;;5063992;28;20535;-52
2022/01/16 13:14:17;;;;;;;68.55;36.58;;;4.80;99.90;;;;;;5073746;28;20504;-54
2022/01/16 13:16:45;;;;;;;66.80;37.58;;;4.90;99.90;;;;;;5062491;28;20561;-56
2022/01/16 13:19:18;;;;;;;62.15;35.65;;;5.00;99.90;;;;;;5085543;28;20463;-55
2022/01/16 13:22:05;;;;;;;59.22;35.53;;;5.00;99.90;;;;;;5068080;28;20446;-55
2022/01/16 13:24:51;;;;;;;62.22;35.58;;;4.90;99.90;;;;;;5085050;28;20413;-52
2022/01/16 13:27:18;;;;;;;59.17;35.13;;;5.20;99.90;;;;;;5065839;28;20436;-54
2022/01/16 13:29:46;;;;;;;63.92;37.25;;;5.20;99.90;;;;;;5068435;28;20868;-53